createdAt,value
2023-04-27T00:00:06.979Z,0
2023-04-27T00:05:06.514Z,0
2023-04-27T00:10:05.082Z,0
2023-04-27T00:15:04.832Z,0
2023-04-27T00:40:01.109Z,0
2023-04-27T00:45:00.717Z,0
2023-04-27T00:50:01.037Z,0
2023-04-27T00:54:59.696Z,0
2023-04-27T00:59:47.291Z,0
2023-04-27T02:04:40.646Z,0
2023-04-27T02:24:38.371Z,0
2023-04-27T02:29:41.306Z,0
2023-04-27T02:39:35.885Z,0
2023-04-27T02:44:35.396Z,0
2023-04-27T02:49:36.177Z,0
2023-04-27T03:04:33.526Z,0
2023-04-27T03:09:32.160Z,0
2023-04-27T03:14:29.914Z,0
2023-04-27T03:19:29.793Z,0
2023-04-27T03:24:29.358Z,0
2023-04-27T03:29:29.796Z,0
2023-04-27T03:34:26.891Z,0
2023-04-27T03:39:26.677Z,0
2023-04-27T03:44:26.084Z,0
2023-04-27T03:49:25.437Z,0
2023-04-27T03:54:25.639Z,0
2023-04-27T04:01:11.673Z,0
2023-04-27T04:05:56.529Z,0
2023-04-27T04:10:58.868Z,0
2023-04-27T04:15:54.996Z,0
2023-04-27T04:20:54.856Z,0
2023-04-27T04:25:54.046Z,0
2023-04-27T04:30:53.833Z,0
2023-04-27T04:35:53.823Z,0.01
2023-04-27T04:40:56.718Z,0.01
2023-04-27T04:45:52.419Z,0.01
2023-04-27T04:50:52.694Z,0.02
2023-04-27T04:55:51.359Z,0.02
2023-04-27T05:00:05.946Z,0.03
2023-04-27T05:05:06.928Z,0.03
2023-04-27T05:10:07.367Z,0.04
2023-04-27T05:15:03.764Z,0.04
2023-04-27T05:20:03.920Z,0.05
2023-04-27T05:25:03.406Z,0.06
2023-04-27T05:30:03.719Z,0.06
2023-04-27T05:35:00.918Z,0.07
2023-04-27T05:43:21.866Z,0.08
2023-04-27T06:00:57.077Z,0.11
2023-04-27T06:05:32.278Z,0.12
2023-04-27T06:10:32.292Z,0.13
2023-04-27T06:15:31.630Z,0.13
2023-04-27T06:20:32.975Z,0.14
2023-04-27T06:25:29.584Z,0.15
2023-04-27T06:30:29.191Z,0.16
2023-04-27T06:35:28.913Z,0.17
2023-04-27T06:40:28.818Z,0.18
2023-04-27T06:45:26.208Z,0.19
2023-04-27T06:50:26.076Z,0.19
2023-04-27T06:55:25.739Z,0.23
2023-04-27T06:59:56.682Z,0.24
2023-04-27T07:04:55.100Z,0.25
2023-04-27T07:10:09.519Z,0.26
2023-04-27T07:14:55.685Z,0.28
2023-04-27T07:19:54.864Z,0.28
2023-04-27T07:24:55.293Z,0.29
2023-04-27T07:30:12.372Z,0.3
2023-04-27T07:34:54.585Z,0.37
2023-04-27T07:39:54.959Z,0.41
2023-04-27T07:44:53.652Z,0.48
2023-04-27T07:49:54.645Z,0.45
2023-04-27T07:54:54.687Z,0.48
2023-04-27T07:59:55.363Z,0.5
2023-04-27T08:09:53.851Z,0.48
2023-04-27T08:20:03.719Z,0.55
2023-04-27T08:24:51.703Z,0.54
2023-04-27T08:34:39.315Z,0.54
2023-04-27T08:39:39.693Z,0.63
2023-04-27T08:44:42.337Z,0.63
2023-04-27T08:49:41.518Z,0.62
2023-04-27T08:54:37.679Z,0.67
2023-04-27T09:01:24.547Z,0.65
2023-04-27T09:06:15.877Z,0.66
2023-04-27T09:10:58.406Z,0.74
2023-04-27T09:15:59.336Z,0.77
2023-04-27T09:20:57.881Z,0.74
2023-04-27T09:25:59.428Z,0.78
2023-04-27T09:30:55.399Z,0.79
2023-04-27T09:35:55.559Z,0.86
2023-04-27T09:40:55.646Z,0.9
2023-04-27T09:45:55.362Z,0.79
2023-04-27T09:50:52.913Z,0.93
2023-04-27T09:55:52.317Z,0.97
2023-04-27T10:00:12.977Z,0.94
2023-04-27T10:05:13.011Z,1.01
2023-04-27T10:10:11.920Z,0.92
2023-04-27T10:15:11.283Z,0.89
2023-04-27T10:20:11.582Z,0.96
2023-04-27T10:25:10.936Z,1
2023-04-27T10:30:08.461Z,0.81
2023-04-27T10:35:08.430Z,0.86
2023-04-27T10:40:18.325Z,0.8
2023-04-27T10:45:06.518Z,0.86
2023-04-27T10:50:05.493Z,0.73
2023-04-27T10:55:05.237Z,0.74
2023-04-27T11:49:50.660Z,0.92
2023-04-27T12:04:49.823Z,0.86
2023-04-27T12:09:46.910Z,0.93
2023-04-27T12:14:58.009Z,0.9
2023-04-27T12:19:56.572Z,0.77
2023-04-27T12:29:55.616Z,0.78
2023-04-27T12:34:55.305Z,0.83
2023-04-27T12:39:56.329Z,0.84
2023-04-27T12:44:53.740Z,0.89
2023-04-27T12:49:53.321Z,0.86
2023-04-27T12:54:55.362Z,0.84
2023-04-27T14:05:55.149Z,0.79
2023-04-27T14:10:51.883Z,0.71
2023-04-27T14:15:51.766Z,0.61
2023-04-27T14:20:50.657Z,0.76
2023-04-27T14:25:50.481Z,0.67
2023-04-27T14:30:47.405Z,0.67
2023-04-27T14:35:47.712Z,0.68
2023-04-27T14:40:57.012Z,0.67
2023-04-27T14:47:01.611Z,0.62
2023-04-27T14:50:47.085Z,0.58
2023-04-27T14:55:57.381Z,0.55
2023-04-27T15:00:08.612Z,0.46
2023-04-27T15:05:08.330Z,0.45
2023-04-27T15:10:07.686Z,0.47
2023-04-27T15:15:09.557Z,0.3
2023-04-27T15:20:05.918Z,0.39
2023-04-27T15:25:03.767Z,0.32
2023-04-27T15:30:04.292Z,0.33
2023-04-27T15:35:03.387Z,0.35
2023-04-27T15:40:03.533Z,0.35
2023-04-27T15:45:02.610Z,0.26
2023-04-27T15:50:08.077Z,0.32
2023-04-27T15:55:03.212Z,0.29
2023-04-27T15:59:47.319Z,0.26
2023-04-27T16:04:48.005Z,0.22
2023-04-27T16:09:47.498Z,0.24
2023-04-27T16:14:48.518Z,0.23
2023-04-27T16:49:40.519Z,0.1
2023-04-27T16:54:39.416Z,0.09
2023-04-27T18:01:32.533Z,0.02
2023-04-27T18:05:51.783Z,0.01
2023-04-27T18:10:49.153Z,0.01
2023-04-27T18:15:52.353Z,0.01
2023-04-27T18:20:54.948Z,0
2023-04-27T18:25:47.145Z,0
2023-04-27T18:30:57.376Z,0
2023-04-27T18:35:57.010Z,0
2023-04-27T18:40:57.081Z,0
2023-04-27T18:45:57.587Z,0
2023-04-27T18:50:55.544Z,0
2023-04-27T18:55:54.353Z,0
2023-04-27T19:00:15.391Z,0
2023-04-27T19:05:23.734Z,0
2023-04-27T19:10:12.557Z,0
2023-04-27T19:15:12.824Z,0
2023-04-27T19:20:13.600Z,0
2023-04-27T19:25:09.619Z,0
2023-04-27T19:30:09.870Z,0
2023-04-27T19:40:09.238Z,0
2023-04-27T19:45:09.188Z,0
2023-04-27T19:50:08.518Z,0
2023-04-27T19:55:09.058Z,0
2023-04-27T19:59:53.153Z,0
2023-04-27T20:04:53.444Z,0
2023-04-27T20:09:52.800Z,0
2023-04-27T20:14:52.128Z,0
2023-04-27T20:19:50.899Z,0
2023-04-27T20:24:50.423Z,0
2023-04-27T20:30:21.958Z,0
2023-04-27T20:34:50.170Z,0
2023-04-27T20:44:49.188Z,0
2023-04-27T20:49:48.319Z,0
2023-04-27T20:54:47.940Z,0
2023-04-27T20:59:56.852Z,0
